• images/banner/banner1.jpg
  • images/banner/banner2.jpg

Team Member Login

Aviation Weather

[source: ADDS]
METAR
EGVN 230250Z 20006KT 9999 FEW015 OVC020 14/11 Q1020 TEMPO SCT014 =
TAF
TAF EGVN 230116Z 2303/2403 20010KT 9999 SCT020 TEMPO 2303/2308 7000 -RA SCT012 PROB30 TEMPO 2303/2308 4000 -RADZ BECMG 2308/2310 SCT040 =